createdAt,value
2017-06-29T00:02:01.114Z,67.80
2017-06-29T00:04:28.646Z,67.00
2017-06-29T00:06:56.955Z,67.40
2017-06-29T00:09:24.515Z,67.20
2017-06-29T00:11:52.098Z,67.40
2017-06-29T00:14:19.600Z,67.20
2017-06-29T00:16:47.910Z,68.30
2017-06-29T00:19:15.463Z,68.20
2017-06-29T00:21:42.978Z,67.80
2017-06-29T00:24:10.560Z,67.90
2017-06-29T00:26:38.081Z,67.10
2017-06-29T00:29:05.618Z,67.70
2017-06-29T00:31:33.180Z,67.50
2017-06-29T00:34:00.706Z,67.70
2017-06-29T00:36:28.987Z,67.30
2017-06-29T00:38:57.283Z,67.90
2017-06-29T00:41:24.789Z,67.70
2017-06-29T00:43:52.361Z,67.90
2017-06-29T00:46:19.887Z,67.80
2017-06-29T00:48:47.405Z,68.00
2017-06-29T00:51:14.913Z,68.10
2017-06-29T00:53:42.460Z,68.40
2017-06-29T00:56:09.984Z,68.60
2017-06-29T00:58:37.554Z,68.20
2017-06-29T01:01:05.055Z,69.00
2017-06-29T01:03:32.624Z,69.50
2017-06-29T01:06:00.139Z,69.30
2017-06-29T01:08:27.670Z,69.00
2017-06-29T01:10:55.261Z,68.80
2017-06-29T01:13:22.831Z,68.60
2017-06-29T01:15:50.354Z,68.50
2017-06-29T01:18:18.658Z,68.40
2017-06-29T01:20:46.164Z,68.30
2017-06-29T01:23:13.728Z,68.90
2017-06-29T01:25:41.275Z,69.40
2017-06-29T01:28:08.804Z,69.20
2017-06-29T01:30:36.312Z,69.00
2017-06-29T01:33:03.852Z,69.00
2017-06-29T01:35:31.493Z,68.80
2017-06-29T01:37:59.031Z,68.80
2017-06-29T01:40:26.558Z,69.20
2017-06-29T01:42:54.098Z,69.60
2017-06-29T01:45:21.629Z,70.40
2017-06-29T01:47:49.167Z,70.10
2017-06-29T01:50:16.726Z,70.10
2017-06-29T01:52:44.266Z,70.20
2017-06-29T01:55:12.609Z,70.80
2017-06-29T01:57:40.126Z,70.60
2017-06-29T02:00:07.653Z,70.80
2017-06-29T02:02:35.176Z,70.70
2017-06-29T02:05:02.753Z,69.60
2017-06-29T02:07:30.301Z,68.30
2017-06-29T02:09:57.840Z,68.00
2017-06-29T02:12:25.362Z,67.90
2017-06-29T02:14:52.899Z,67.50
2017-06-29T02:17:21.199Z,68.20
2017-06-29T02:19:49.578Z,68.20
2017-06-29T02:22:17.888Z,68.40
2017-06-29T02:24:45.428Z,68.40
2017-06-29T02:27:13.702Z,68.40
2017-06-29T02:29:42.026Z,68.50
2017-06-29T02:32:09.544Z,68.30
2017-06-29T02:34:37.099Z,67.40
2017-06-29T02:37:04.658Z,67.20
2017-06-29T02:39:32.986Z,67.20
2017-06-29T02:42:00.501Z,67.10
2017-06-29T02:44:28.060Z,67.20
2017-06-29T02:46:56.395Z,66.70
2017-06-29T02:49:23.957Z,66.70
2017-06-29T02:51:51.466Z,66.00
2017-06-29T02:54:19.097Z,65.80
2017-06-29T02:56:46.620Z,64.90
2017-06-29T02:59:14.182Z,64.40
2017-06-29T03:01:41.714Z,64.60
2017-06-29T03:04:09.252Z,65.00
2017-06-29T03:06:36.778Z,65.70
2017-06-29T03:09:04.324Z,66.20
2017-06-29T03:11:31.860Z,65.40
2017-06-29T03:13:59.390Z,65.00
2017-06-29T03:16:27.670Z,64.20
2017-06-29T03:21:29.214Z,63.90
2017-06-29T03:23:56.779Z,63.80
2017-06-29T03:26:24.292Z,64.10
2017-06-29T03:28:51.852Z,63.90
2017-06-29T03:31:19.407Z,63.70
2017-06-29T03:33:46.946Z,63.40
2017-06-29T03:36:14.532Z,63.90
2017-06-29T03:38:42.082Z,62.80
2017-06-29T03:41:09.670Z,62.70
2017-06-29T03:43:37.178Z,63.00
2017-06-29T03:46:05.489Z,63.90
2017-06-29T03:48:33.058Z,63.90
2017-06-29T03:51:00.591Z,63.80
2017-06-29T03:53:28.127Z,63.10
2017-06-29T03:55:55.654Z,64.30
2017-06-29T03:58:23.206Z,64.00
2017-06-29T04:00:50.743Z,64.10
2017-06-29T04:03:18.262Z,64.10
2017-06-29T04:05:46.579Z,64.50
2017-06-29T04:08:14.164Z,64.10
2017-06-29T04:10:41.697Z,63.50
2017-06-29T04:13:09.230Z,63.20
2017-06-29T04:15:37.562Z,63.80
2017-06-29T04:18:05.068Z,63.70
2017-06-29T04:20:32.623Z,63.50
2017-06-29T04:23:00.151Z,63.10
2017-06-29T04:25:27.726Z,64.00
2017-06-29T04:27:56.035Z,64.20
2017-06-29T04:30:23.580Z,64.20
2017-06-29T04:32:51.872Z,63.10
2017-06-29T04:35:19.434Z,63.10
2017-06-29T04:37:46.949Z,63.10
2017-06-29T04:40:14.569Z,62.40
2017-06-29T04:42:42.080Z,61.90
2017-06-29T04:45:09.606Z,61.70
2017-06-29T04:47:37.194Z,61.20
2017-06-29T04:50:04.749Z,60.60
2017-06-29T04:52:32.322Z,61.20
2017-06-29T04:54:59.874Z,61.30
2017-06-29T04:57:28.199Z,62.00
2017-06-29T04:59:55.762Z,61.90
2017-06-29T05:02:23.328Z,61.00
2017-06-29T05:04:50.876Z,60.70
2017-06-29T05:07:18.456Z,61.00
2017-06-29T05:09:45.997Z,62.80
2017-06-29T05:12:13.562Z,61.40
2017-06-29T05:14:41.091Z,61.00
2017-06-29T05:17:09.402Z,61.90
2017-06-29T05:19:36.992Z,61.50
2017-06-29T05:22:04.536Z,61.40
2017-06-29T05:24:32.058Z,60.70
2017-06-29T05:27:00.430Z,60.10
2017-06-29T05:29:28.715Z,60.00
2017-06-29T05:31:56.270Z,59.90
2017-06-29T05:34:23.834Z,60.10
2017-06-29T05:36:52.147Z,59.60
2017-06-29T05:39:19.675Z,59.60
2017-06-29T05:41:47.271Z,59.90
2017-06-29T05:44:14.833Z,59.60
2017-06-29T05:46:42.368Z,59.30
2017-06-29T05:49:09.894Z,59.30
2017-06-29T05:51:37.437Z,59.50
2017-06-29T05:54:04.949Z,59.70
2017-06-29T05:56:32.511Z,60.10
2017-06-29T05:59:00.339Z,61.40
2017-06-29T06:01:27.915Z,61.40
2017-06-29T06:03:55.442Z,60.90
2017-06-29T06:06:23.003Z,61.10
2017-06-29T06:08:50.565Z,61.30
2017-06-29T06:11:18.102Z,60.90
2017-06-29T06:13:45.619Z,60.20
2017-06-29T06:16:13.193Z,60.20
2017-06-29T06:18:40.710Z,60.50
2017-06-29T06:21:08.234Z,59.80
2017-06-29T06:23:35.766Z,60.80
2017-06-29T06:26:03.328Z,61.40
2017-06-29T06:28:30.851Z,60.10
2017-06-29T06:30:58.378Z,59.50
2017-06-29T06:33:25.950Z,58.90
2017-06-29T06:35:53.542Z,59.00
2017-06-29T06:38:21.847Z,59.50
2017-06-29T06:40:49.403Z,59.10
2017-06-29T06:43:16.934Z,57.90
2017-06-29T06:45:44.475Z,57.20
2017-06-29T06:48:12.008Z,57.00
2017-06-29T06:50:39.522Z,57.70
2017-06-29T06:53:07.103Z,56.80
2017-06-29T06:55:34.625Z,58.00
2017-06-29T06:58:02.204Z,58.20
2017-06-29T07:00:29.753Z,57.80
2017-06-29T07:02:57.327Z,58.00
2017-06-29T07:05:25.594Z,59.00
2017-06-29T07:07:53.140Z,59.00
2017-06-29T07:10:20.690Z,58.30
2017-06-29T07:12:48.239Z,58.30
2017-06-29T07:15:15.772Z,58.80
2017-06-29T07:17:43.351Z,58.90
2017-06-29T07:20:10.854Z,58.50
2017-06-29T07:22:39.171Z,59.80
2017-06-29T07:25:06.699Z,59.70
2017-06-29T07:27:34.246Z,59.30
2017-06-29T07:30:01.767Z,58.50
2017-06-29T07:32:29.334Z,58.70
2017-06-29T07:34:56.886Z,58.70
2017-06-29T07:37:24.439Z,58.70
2017-06-29T07:39:52.011Z,59.00
2017-06-29T07:42:19.593Z,59.10
2017-06-29T07:44:47.143Z,58.70
2017-06-29T07:47:14.781Z,58.70
2017-06-29T07:49:42.326Z,58.70
2017-06-29T07:52:09.930Z,59.00
2017-06-29T07:54:37.469Z,60.00
2017-06-29T07:57:04.999Z,61.20
2017-06-29T07:59:33.675Z,60.60
2017-06-29T08:02:01.565Z,59.60
2017-06-29T08:04:29.074Z,59.20
2017-06-29T08:06:56.895Z,59.70
2017-06-29T08:09:24.401Z,59.10
2017-06-29T08:11:51.939Z,57.40
2017-06-29T08:14:19.491Z,57.10
2017-06-29T08:16:47.021Z,56.70
2017-06-29T08:19:14.543Z,56.90
2017-06-29T08:21:42.085Z,56.40
2017-06-29T08:24:09.640Z,56.90
2017-06-29T08:26:37.197Z,55.20
2017-06-29T08:29:04.702Z,54.80
2017-06-29T08:31:32.254Z,54.10
2017-06-29T08:34:00.575Z,52.40
2017-06-29T08:36:28.114Z,52.30
2017-06-29T08:38:55.666Z,52.50
2017-06-29T08:41:23.205Z,52.50
2017-06-29T08:43:50.782Z,52.60
2017-06-29T08:46:18.286Z,52.70
2017-06-29T08:48:45.940Z,53.30
2017-06-29T08:51:13.509Z,53.60
2017-06-29T08:53:41.034Z,53.80
2017-06-29T08:56:08.555Z,54.10
2017-06-29T08:58:36.154Z,55.40
2017-06-29T09:01:03.704Z,55.60
2017-06-29T09:03:31.375Z,54.30
2017-06-29T09:05:59.087Z,54.30
2017-06-29T09:08:27.566Z,55.10
2017-06-29T09:10:55.090Z,54.30
2017-06-29T09:13:23.843Z,53.90
2017-06-29T09:15:52.138Z,53.20
2017-06-29T09:18:19.711Z,53.10
2017-06-29T09:20:47.246Z,53.30
2017-06-29T09:23:15.551Z,52.50
2017-06-29T09:25:43.115Z,52.50
2017-06-29T09:28:10.652Z,52.50
2017-06-29T09:30:38.186Z,52.20
2017-06-29T09:33:05.717Z,52.30
2017-06-29T09:35:33.267Z,51.60
2017-06-29T09:38:01.127Z,52.20
2017-06-29T09:40:28.648Z,51.90
2017-06-29T09:42:56.967Z,52.90
2017-06-29T09:45:24.537Z,52.30
2017-06-29T09:47:52.090Z,52.60
2017-06-29T09:50:19.598Z,52.40
2017-06-29T09:52:47.160Z,51.20
2017-06-29T09:55:15.467Z,49.40
2017-06-29T09:57:42.998Z,49.70
2017-06-29T10:00:10.531Z,50.30
2017-06-29T10:02:38.094Z,50.20
2017-06-29T10:05:05.612Z,50.40
2017-06-29T10:07:33.122Z,50.20
2017-06-29T10:10:00.678Z,49.80
2017-06-29T10:12:28.223Z,50.80
2017-06-29T10:14:55.788Z,50.60
2017-06-29T10:17:23.325Z,51.10
2017-06-29T10:19:50.909Z,50.40
2017-06-29T10:22:18.435Z,48.60
2017-06-29T10:24:45.974Z,47.30
2017-06-29T10:27:13.498Z,46.80
2017-06-29T10:29:41.067Z,46.90
2017-06-29T10:32:08.619Z,47.00
2017-06-29T10:34:36.142Z,47.40
2017-06-29T10:37:03.690Z,48.20
2017-06-29T10:39:31.240Z,48.70
2017-06-29T10:41:58.830Z,47.60
2017-06-29T10:44:26.362Z,46.90
2017-06-29T10:46:53.919Z,45.70
2017-06-29T10:49:21.453Z,46.10
2017-06-29T10:51:49.018Z,45.60
2017-06-29T10:54:16.570Z,45.10
2017-06-29T10:56:44.098Z,43.70
2017-06-29T10:59:11.631Z,43.90
2017-06-29T11:01:39.155Z,45.20
2017-06-29T11:04:06.733Z,46.10
2017-06-29T11:06:34.283Z,47.10
2017-06-29T11:09:02.587Z,48.50
2017-06-29T11:11:30.120Z,48.40
2017-06-29T11:13:57.680Z,47.10
2017-06-29T11:16:25.202Z,48.50
2017-06-29T11:18:52.734Z,48.70
2017-06-29T11:21:20.290Z,48.50
2017-06-29T11:23:47.833Z,49.20
2017-06-29T11:26:15.363Z,48.60
2017-06-29T11:28:42.904Z,49.00
2017-06-29T11:31:16.242Z,47.90
2017-06-29T11:33:43.781Z,47.40
2017-06-29T11:36:11.364Z,46.50
2017-06-29T11:38:38.927Z,46.50
2017-06-29T11:41:07.215Z,42.50
2017-06-29T11:43:34.801Z,42.50
2017-06-29T11:46:02.372Z,42.60
2017-06-29T11:48:29.890Z,42.40
2017-06-29T11:50:57.603Z,41.60
2017-06-29T11:53:25.111Z,42.10
2017-06-29T11:55:52.730Z,41.80
2017-06-29T11:58:20.246Z,41.90
2017-06-29T12:00:47.836Z,43.00
2017-06-29T12:03:15.367Z,43.10
2017-06-29T12:05:42.917Z,42.70
2017-06-29T12:08:10.481Z,43.40
2017-06-29T12:10:38.038Z,43.90
2017-06-29T12:13:05.607Z,43.50
2017-06-29T12:15:33.148Z,43.80
2017-06-29T12:18:00.678Z,42.70
2017-06-29T12:20:28.220Z,42.80
2017-06-29T12:22:55.739Z,44.30
2017-06-29T12:25:23.290Z,43.30
2017-06-29T12:27:50.816Z,42.80
2017-06-29T12:30:18.430Z,43.30
2017-06-29T12:32:45.967Z,42.30
2017-06-29T12:35:13.504Z,41.90
2017-06-29T12:37:41.023Z,41.50
2017-06-29T12:40:08.547Z,41.80
2017-06-29T12:42:36.089Z,40.80
2017-06-29T12:45:03.645Z,39.60
2017-06-29T12:47:31.919Z,39.30
2017-06-29T12:50:00.235Z,39.80
2017-06-29T12:52:27.762Z,39.80
2017-06-29T12:54:55.322Z,40.10
2017-06-29T12:57:23.602Z,42.20
2017-06-29T12:59:51.960Z,40.90
2017-06-29T13:02:20.321Z,41.20
2017-06-29T13:04:47.856Z,41.20
2017-06-29T13:07:15.389Z,41.00
2017-06-29T13:09:42.947Z,41.60
2017-06-29T13:12:11.309Z,43.30
2017-06-29T13:14:39.622Z,41.80
2017-06-29T13:17:07.165Z,41.70
2017-06-29T13:19:35.482Z,42.10
2017-06-29T13:22:03.092Z,41.90
2017-06-29T13:24:31.487Z,41.00
2017-06-29T13:26:59.045Z,41.00
2017-06-29T13:29:26.545Z,40.80
2017-06-29T13:31:54.072Z,41.00
2017-06-29T13:34:21.626Z,41.30
2017-06-29T13:36:49.166Z,42.10
2017-06-29T13:39:16.713Z,43.10
2017-06-29T13:41:44.254Z,43.50
2017-06-29T13:44:11.809Z,42.30
2017-06-29T13:46:39.376Z,41.50
2017-06-29T13:49:06.902Z,42.50
2017-06-29T13:51:34.454Z,42.30
2017-06-29T13:54:01.995Z,42.80
2017-06-29T13:56:29.579Z,42.40
2017-06-29T13:58:57.081Z,41.90
2017-06-29T14:01:24.603Z,42.10
2017-06-29T14:03:52.122Z,42.00
2017-06-29T14:06:19.694Z,42.10
2017-06-29T14:08:47.289Z,42.20
2017-06-29T14:11:17.382Z,42.10
2017-06-29T14:13:46.443Z,40.80
2017-06-29T14:16:13.978Z,40.70
2017-06-29T14:18:41.504Z,41.70
2017-06-29T14:21:09.030Z,42.00
2017-06-29T14:23:37.341Z,41.50
2017-06-29T14:26:04.870Z,41.50
2017-06-29T14:28:32.414Z,41.70
2017-06-29T14:30:59.962Z,41.10
2017-06-29T14:33:27.480Z,41.40
2017-06-29T14:35:55.039Z,40.70
2017-06-29T14:38:22.538Z,40.20
2017-06-29T14:40:50.106Z,41.00
2017-06-29T14:43:17.626Z,40.90
2017-06-29T14:45:45.156Z,40.20
2017-06-29T14:48:13.431Z,39.60
2017-06-29T14:50:41.003Z,39.60
2017-06-29T14:53:08.546Z,40.40
2017-06-29T14:55:36.091Z,39.40
2017-06-29T14:58:03.670Z,40.00
2017-06-29T15:00:31.988Z,39.70
2017-06-29T15:02:59.495Z,39.70
2017-06-29T15:05:27.842Z,40.50
2017-06-29T15:07:55.398Z,40.50
2017-06-29T15:10:22.958Z,39.40
2017-06-29T15:12:50.482Z,39.00
2017-06-29T15:15:18.015Z,39.40
2017-06-29T15:17:45.597Z,39.80
2017-06-29T15:20:13.103Z,39.90
2017-06-29T15:22:40.626Z,38.90
2017-06-29T15:25:08.186Z,39.70
2017-06-29T15:27:35.726Z,39.90
2017-06-29T15:30:03.279Z,39.70
2017-06-29T15:32:31.583Z,39.20
2017-06-29T15:34:59.162Z,38.50
2017-06-29T15:37:26.715Z,39.00
2017-06-29T15:39:54.225Z,39.20
2017-06-29T15:42:21.782Z,38.70
2017-06-29T15:44:49.296Z,37.30
2017-06-29T15:47:16.827Z,37.80
2017-06-29T15:49:45.107Z,38.50
2017-06-29T15:52:12.693Z,38.50
2017-06-29T15:54:40.223Z,38.40
2017-06-29T15:57:08.506Z,37.80
2017-06-29T15:59:36.786Z,39.30
2017-06-29T16:02:04.362Z,39.30
2017-06-29T16:04:31.876Z,38.80
2017-06-29T16:06:59.423Z,37.90
2017-06-29T16:09:26.973Z,37.30
2017-06-29T16:11:55.971Z,37.20
2017-06-29T16:20:36.081Z,40.40
2017-06-29T16:23:03.755Z,40.30
2017-06-29T16:28:30.698Z,39.00
2017-06-29T16:30:58.218Z,37.90
2017-06-29T16:33:25.749Z,39.40
2017-06-29T16:36:18.022Z,40.20
2017-06-29T16:45:12.761Z,40.10
2017-06-29T16:47:40.295Z,40.10
2017-06-29T16:50:07.818Z,40.20
2017-06-29T16:52:35.346Z,40.40
2017-06-29T16:55:02.847Z,39.60
2017-06-29T16:57:30.400Z,39.50
2017-06-29T16:59:57.933Z,39.90
2017-06-29T17:02:25.464Z,40.10
2017-06-29T17:04:52.990Z,41.40
2017-06-29T17:07:20.510Z,41.10
2017-06-29T17:09:48.042Z,41.50
2017-06-29T17:12:15.582Z,41.40
2017-06-29T17:14:43.902Z,41.60
2017-06-29T17:17:12.297Z,41.60
2017-06-29T17:19:39.825Z,41.80
2017-06-29T17:22:07.407Z,41.60
2017-06-29T17:24:34.910Z,41.50
2017-06-29T17:27:02.435Z,42.00
2017-06-29T17:29:29.990Z,41.70
2017-06-29T17:31:57.525Z,41.90
2017-06-29T17:34:25.052Z,42.20
2017-06-29T17:36:53.342Z,42.10
2017-06-29T17:39:20.888Z,42.00
2017-06-29T17:41:49.175Z,41.90
2017-06-29T17:44:17.515Z,41.90
2017-06-29T17:46:45.058Z,41.80
2017-06-29T17:49:12.626Z,42.00
2017-06-29T17:51:40.148Z,41.90
2017-06-29T17:54:07.676Z,41.70
2017-06-29T17:56:35.297Z,41.80
2017-06-29T17:59:02.830Z,41.70
2017-06-29T18:01:30.384Z,41.60
2017-06-29T18:03:57.958Z,41.50
2017-06-29T18:06:25.507Z,42.10
2017-06-29T18:08:53.039Z,42.80
2017-06-29T18:11:21.322Z,42.40
2017-06-29T18:13:49.641Z,43.30
2017-06-29T18:16:17.151Z,43.30
2017-06-29T18:18:44.691Z,42.80
2017-06-29T18:21:12.253Z,42.50
2017-06-29T18:23:39.801Z,43.20
2017-06-29T18:26:07.309Z,43.10
2017-06-29T18:28:34.877Z,42.80
2017-06-29T18:31:02.396Z,43.60
2017-06-29T18:33:29.951Z,43.60
2017-06-29T18:35:57.507Z,43.80
2017-06-29T18:38:25.062Z,43.80
2017-06-29T18:40:52.595Z,43.80
2017-06-29T18:43:20.133Z,44.20
2017-06-29T18:45:47.674Z,44.30
2017-06-29T18:48:15.998Z,45.80
2017-06-29T18:53:17.987Z,45.70
2017-06-29T18:55:45.492Z,45.40
2017-06-29T18:58:13.028Z,47.30
2017-06-29T19:00:40.543Z,46.50
2017-06-29T19:03:08.103Z,46.40
2017-06-29T19:05:35.626Z,46.40
2017-06-29T19:08:03.937Z,46.10
2017-06-29T19:10:31.461Z,46.50
2017-06-29T19:12:58.990Z,45.80
2017-06-29T19:15:26.522Z,45.60
2017-06-29T19:17:54.087Z,46.40
2017-06-29T19:20:21.614Z,47.00
2017-06-29T19:22:49.138Z,46.50
2017-06-29T19:25:16.668Z,45.60
2017-06-29T19:27:44.190Z,46.10
2017-06-29T19:30:12.505Z,45.90
2017-06-29T19:32:40.035Z,45.90
2017-06-29T19:35:07.582Z,45.70
2017-06-29T19:37:35.861Z,47.50
2017-06-29T19:40:04.151Z,47.40
2017-06-29T19:42:31.674Z,47.40
2017-06-29T19:44:59.206Z,46.60
2017-06-29T19:47:26.721Z,46.40
2017-06-29T19:49:54.253Z,46.60
2017-06-29T19:52:21.788Z,47.00
2017-06-29T19:54:49.318Z,47.90
2017-06-29T19:57:16.867Z,47.30
2017-06-29T19:59:44.402Z,47.40
2017-06-29T20:02:11.957Z,47.30
2017-06-29T20:04:39.493Z,48.50
2017-06-29T20:07:07.011Z,47.40
2017-06-29T20:09:34.543Z,48.00
2017-06-29T20:12:02.088Z,47.70
2017-06-29T20:14:29.646Z,46.50
2017-06-29T20:16:57.161Z,45.60
2017-06-29T20:19:24.684Z,45.10
2017-06-29T20:21:52.222Z,44.70
2017-06-29T20:24:19.783Z,46.00
2017-06-29T20:26:47.312Z,45.90
2017-06-29T20:29:14.858Z,46.40
2017-06-29T20:31:42.386Z,47.20
2017-06-29T20:34:09.939Z,48.50
2017-06-29T20:36:37.451Z,47.30
2017-06-29T20:39:05.021Z,47.70
2017-06-29T20:41:32.585Z,46.80
2017-06-29T20:44:00.142Z,47.10
2017-06-29T20:46:27.661Z,47.80
2017-06-29T20:48:55.978Z,47.40
2017-06-29T20:51:23.494Z,47.40
2017-06-29T20:53:51.066Z,47.70
2017-06-29T20:56:18.611Z,47.90
2017-06-29T20:58:46.182Z,47.90
2017-06-29T21:01:13.780Z,48.90
2017-06-29T21:03:41.336Z,49.80
2017-06-29T21:06:08.877Z,50.40
2017-06-29T21:08:36.464Z,50.70
2017-06-29T21:11:04.038Z,51.00
2017-06-29T21:13:31.554Z,51.10
2017-06-29T21:15:59.370Z,51.20
2017-06-29T21:18:26.879Z,51.40
2017-06-29T21:20:54.406Z,51.70
2017-06-29T21:23:21.948Z,51.80
2017-06-29T21:25:49.510Z,52.70
2017-06-29T21:28:17.029Z,53.00
2017-06-29T21:30:44.558Z,53.50
2017-06-29T21:33:12.089Z,53.80
2017-06-29T21:35:39.712Z,53.80
2017-06-29T21:38:07.238Z,53.70
2017-06-29T21:40:35.543Z,53.80
2017-06-29T21:43:03.082Z,53.80
2017-06-29T21:45:31.389Z,54.80
2017-06-29T21:47:58.922Z,54.70
2017-06-29T21:50:26.537Z,54.50
2017-06-29T21:52:54.073Z,54.90
2017-06-29T21:55:21.634Z,55.00
2017-06-29T21:57:49.183Z,55.30
2017-06-29T22:00:16.754Z,55.30
2017-06-29T22:02:44.287Z,55.60
2017-06-29T22:05:11.823Z,55.60
2017-06-29T22:07:40.099Z,55.30
2017-06-29T22:10:09.888Z,55.30
2017-06-29T22:12:37.401Z,54.90
2017-06-29T22:15:04.999Z,54.70
2017-06-29T22:17:32.524Z,54.90
2017-06-29T22:20:00.110Z,54.70
2017-06-29T22:22:27.647Z,54.70
2017-06-29T22:24:55.236Z,55.00
2017-06-29T22:27:22.743Z,54.70
2017-06-29T22:29:51.082Z,54.70
2017-06-29T22:32:18.638Z,54.70
2017-06-29T22:34:46.241Z,54.20
2017-06-29T22:37:14.558Z,55.00
2017-06-29T22:39:42.114Z,55.00
2017-06-29T22:42:09.651Z,55.00
2017-06-29T22:44:37.163Z,55.30
2017-06-29T22:47:04.727Z,55.30
2017-06-29T22:49:32.253Z,55.40
2017-06-29T22:51:59.777Z,55.30
2017-06-29T22:54:28.066Z,55.10
2017-06-29T22:56:55.635Z,55.00
2017-06-29T22:59:23.152Z,55.40
2017-06-29T23:01:50.683Z,55.10
2017-06-29T23:04:18.235Z,55.30
2017-06-29T23:06:45.827Z,55.20
2017-06-29T23:09:13.413Z,55.30
2017-06-29T23:11:41.715Z,55.10
2017-06-29T23:14:09.234Z,55.10
2017-06-29T23:16:36.762Z,55.00
2017-06-29T23:19:04.302Z,54.60
2017-06-29T23:21:31.858Z,54.70
2017-06-29T23:23:59.390Z,54.30
2017-06-29T23:26:27.728Z,54.10
2017-06-29T23:28:55.227Z,54.10
2017-06-29T23:31:22.795Z,54.30
2017-06-29T23:33:50.311Z,54.10
2017-06-29T23:36:17.862Z,53.90
2017-06-29T23:38:45.430Z,54.30
2017-06-29T23:41:12.993Z,54.00
2017-06-29T23:43:40.550Z,53.90
2017-06-29T23:46:08.090Z,54.00
2017-06-29T23:48:35.678Z,54.40
2017-06-29T23:51:03.210Z,54.60
2017-06-29T23:53:30.747Z,54.90
2017-06-29T23:55:58.290Z,54.60
2017-06-29T23:58:26.569Z,55.20
